createdAt,value
2019-01-03T00:01:56.969Z,75.67
2019-01-03T00:04:50.748Z,75.52
2019-01-03T00:07:50.302Z,75.26
2019-01-03T00:10:43.442Z,75.72
2019-01-03T00:13:23.080Z,75.69
2019-01-03T00:16:13.217Z,75.41
2019-01-03T00:19:21.716Z,75.23
2019-01-03T00:22:10.623Z,75.89
2019-01-03T00:25:09.898Z,76.16
2019-01-03T00:27:52.462Z,75.95
2019-01-03T00:30:41.447Z,75.50
2019-01-03T00:33:34.842Z,75.29
2019-01-03T00:36:15.198Z,75.62
2019-01-03T00:39:00.419Z,75.56
2019-01-03T00:41:51.274Z,75.54
2019-01-03T00:44:41.482Z,75.76
2019-01-03T00:47:36.182Z,76.24
2019-01-03T00:50:38.276Z,76.80
2019-01-03T00:53:29.414Z,76.57
2019-01-03T00:56:25.006Z,76.98
2019-01-03T00:59:24.661Z,76.90
2019-01-03T01:02:13.420Z,77.50
2019-01-03T01:05:17.207Z,77.32
2019-01-03T01:08:25.200Z,77.25
2019-01-03T01:11:15.180Z,77.54
2019-01-03T01:14:03.845Z,77.30
2019-01-03T01:16:48.584Z,77.17
2019-01-03T01:19:38.780Z,77.03
2019-01-03T01:22:27.792Z,77.04
2019-01-03T01:25:15.550Z,76.74
2019-01-03T01:28:04.508Z,76.77
2019-01-03T01:30:54.839Z,77.17
2019-01-03T01:33:43.583Z,77.05
2019-01-03T01:36:28.123Z,77.19
2019-01-03T01:39:27.825Z,77.24
2019-01-03T01:42:16.954Z,77.31
2019-01-03T01:45:07.097Z,77.24
2019-01-03T01:48:09.357Z,76.69
2019-01-03T01:50:58.551Z,76.97
2019-01-03T01:53:48.508Z,76.85
2019-01-03T01:56:37.287Z,77.16
2019-01-03T01:59:26.102Z,77.25
2019-01-03T02:02:19.194Z,77.29
2019-01-03T02:05:09.288Z,77.40
2019-01-03T02:08:17.947Z,77.89
2019-01-03T02:11:06.640Z,77.80
2019-01-03T02:14:00.127Z,77.48
2019-01-03T02:16:53.491Z,77.38
2019-01-03T02:20:00.768Z,77.72
2019-01-03T02:22:42.059Z,77.40
2019-01-03T02:25:28.526Z,77.16
2019-01-03T02:28:21.561Z,77.47
2019-01-03T02:31:10.650Z,77.17
2019-01-03T02:34:03.633Z,76.58
2019-01-03T02:36:48.302Z,77.00
2019-01-03T02:39:47.800Z,77.16
2019-01-03T02:42:41.194Z,77.39
2019-01-03T02:45:30.155Z,77.36
2019-01-03T02:48:17.033Z,77.18
2019-01-03T02:51:05.720Z,77.63
2019-01-03T02:53:54.317Z,77.63
2019-01-03T02:56:47.429Z,77.36
2019-01-03T02:59:37.614Z,77.72
2019-01-03T03:02:27.874Z,77.90
2019-01-03T03:05:16.551Z,77.48
2019-01-03T03:08:05.136Z,77.21
2019-01-03T03:11:10.519Z,76.76
2019-01-03T03:14:01.012Z,76.57
2019-01-03T03:16:51.379Z,76.61
2019-01-03T03:19:40.032Z,77.28
2019-01-03T03:22:30.511Z,77.18
2019-01-03T03:25:26.611Z,77.30
2019-01-03T03:28:16.163Z,77.48
2019-01-03T03:31:05.097Z,77.10
2019-01-03T03:34:10.263Z,76.98
2019-01-03T03:37:03.431Z,77.27
2019-01-03T03:39:57.926Z,77.45
2019-01-03T03:42:55.148Z,77.37
2019-01-03T03:45:44.029Z,77.58
2019-01-03T03:48:33.853Z,77.95
2019-01-03T03:51:27.683Z,77.96
2019-01-03T03:54:29.937Z,78.16
2019-01-03T03:57:26.157Z,78.00
2019-01-03T04:00:22.130Z,77.93
2019-01-03T04:03:12.160Z,78.22
2019-01-03T04:06:08.127Z,77.69
2019-01-03T04:08:54.625Z,77.82
2019-01-03T04:11:43.647Z,77.88
2019-01-03T04:14:32.054Z,77.92
2019-01-03T04:17:22.236Z,78.19
2019-01-03T04:20:12.580Z,77.71
2019-01-03T04:23:18.273Z,77.77
2019-01-03T04:26:08.687Z,78.12
2019-01-03T04:28:56.993Z,78.39
2019-01-03T04:31:49.956Z,78.17
2019-01-03T04:34:48.955Z,78.23
2019-01-03T04:37:57.526Z,78.07
2019-01-03T04:40:46.458Z,77.71
2019-01-03T04:43:45.694Z,77.47
2019-01-03T04:46:36.619Z,77.41
2019-01-03T04:49:35.680Z,77.15
2019-01-03T04:52:40.942Z,77.42
2019-01-03T04:55:31.054Z,76.89
2019-01-03T04:58:27.206Z,77.00
2019-01-03T05:01:55.395Z,76.61
2019-01-03T05:04:48.721Z,76.43
2019-01-03T05:07:41.338Z,76.50
2019-01-03T05:10:31.509Z,76.37
2019-01-03T05:13:19.140Z,76.62
2019-01-03T05:16:18.633Z,77.24
2019-01-03T05:19:07.806Z,76.94
2019-01-03T05:21:56.659Z,77.54
2019-01-03T05:24:55.908Z,78.16
2019-01-03T05:27:39.798Z,78.29
2019-01-03T05:30:28.437Z,79.05
2019-01-03T05:33:21.618Z,79.12
2019-01-03T05:36:14.724Z,79.48
2019-01-03T05:39:08.028Z,79.94
2019-01-03T05:42:01.292Z,80.53
2019-01-03T05:44:47.870Z,80.07
2019-01-03T05:47:47.417Z,79.47
2019-01-03T05:50:36.407Z,79.52
2019-01-03T05:53:26.599Z,79.56
2019-01-03T05:56:15.071Z,79.36
2019-01-03T05:59:11.305Z,79.88
2019-01-03T06:02:13.357Z,79.05
2019-01-03T06:05:12.464Z,78.37
2019-01-03T06:08:17.356Z,78.76
2019-01-03T06:10:57.491Z,78.91
2019-01-03T06:14:02.394Z,79.20
2019-01-03T06:16:52.157Z,78.83
2019-01-03T06:19:57.321Z,78.32
2019-01-03T06:22:46.187Z,77.92
2019-01-03T06:25:37.367Z,78.53
2019-01-03T06:28:27.801Z,78.30
2019-01-03T06:31:23.830Z,78.51
2019-01-03T06:34:12.735Z,78.03
2019-01-03T06:37:03.009Z,78.45
2019-01-03T06:39:56.367Z,77.93
2019-01-03T06:42:45.080Z,77.97
2019-01-03T06:45:34.046Z,77.78
2019-01-03T06:48:23.040Z,77.76
2019-01-03T06:51:15.995Z,77.88
2019-01-03T06:54:09.038Z,78.33
2019-01-03T06:57:17.723Z,78.15
2019-01-03T07:00:07.005Z,78.49
2019-01-03T07:02:57.256Z,78.31
2019-01-03T07:05:50.505Z,77.99
2019-01-03T07:08:43.681Z,78.58
2019-01-03T07:11:40.003Z,79.04
2019-01-03T07:14:28.918Z,78.71
2019-01-03T07:17:19.109Z,78.83
2019-01-03T07:20:12.235Z,79.35
2019-01-03T07:23:08.539Z,79.70
2019-01-03T07:26:01.368Z,79.52
2019-01-03T07:28:50.412Z,79.89
2019-01-03T07:31:43.301Z,79.99
2019-01-03T07:34:32.547Z,80.24
2019-01-03T07:37:25.419Z,79.84
2019-01-03T07:40:21.916Z,79.72
2019-01-03T07:43:10.660Z,79.73
2019-01-03T07:46:12.489Z,80.28
2019-01-03T07:49:14.969Z,80.36
2019-01-03T07:52:07.931Z,80.60
2019-01-03T07:55:04.158Z,80.70
2019-01-03T07:57:57.356Z,80.38
2019-01-03T08:00:53.539Z,81.51
2019-01-03T08:03:55.790Z,80.67
2019-01-03T08:06:45.126Z,80.01
2019-01-03T08:09:50.456Z,80.92
2019-01-03T08:12:55.449Z,80.36
2019-01-03T08:15:45.675Z,80.40
2019-01-03T08:18:26.083Z,80.21
2019-01-03T08:21:22.061Z,80.00
2019-01-03T08:24:12.311Z,79.83
2019-01-03T08:27:02.385Z,79.63
2019-01-03T08:30:04.601Z,79.73
2019-01-03T08:32:51.537Z,79.54
2019-01-03T08:36:01.528Z,80.29
2019-01-03T08:38:52.403Z,79.78
2019-01-03T08:41:41.620Z,80.56
2019-01-03T08:44:43.868Z,79.10
2019-01-03T08:47:32.690Z,78.93
2019-01-03T08:50:28.878Z,78.23
2019-01-03T08:53:19.273Z,78.15
2019-01-03T08:56:27.512Z,77.99
2019-01-03T08:59:23.637Z,81.11
2019-01-03T09:02:13.732Z,76.00
2019-01-03T09:05:04.060Z,76.52
2019-01-03T09:08:01.608Z,76.95
2019-01-03T09:10:51.852Z,75.48
2019-01-03T09:13:33.679Z,75.14
2019-01-03T09:16:29.477Z,74.82
2019-01-03T09:19:20.591Z,74.20
2019-01-03T09:22:16.846Z,73.15
2019-01-03T09:25:05.550Z,73.15
2019-01-03T09:27:54.510Z,72.66
2019-01-03T09:30:45.536Z,72.21
2019-01-03T09:33:34.328Z,72.86
2019-01-03T09:36:22.756Z,72.40
2019-01-03T09:39:11.653Z,72.87
2019-01-03T09:42:11.512Z,71.19
2019-01-03T09:44:46.101Z,71.91
2019-01-03T09:47:17.528Z,71.16
2019-01-03T09:49:49.135Z,70.85
2019-01-03T09:52:20.478Z,69.88
2019-01-03T09:54:51.998Z,71.85
2019-01-03T09:57:23.193Z,71.07
2019-01-03T09:59:54.528Z,72.06
2019-01-03T10:02:25.972Z,70.81
2019-01-03T10:04:57.095Z,70.27
2019-01-03T10:07:28.540Z,70.93
2019-01-03T10:10:00.018Z,70.88
2019-01-03T10:12:31.501Z,70.46
2019-01-03T10:15:03.034Z,71.08
2019-01-03T10:17:34.367Z,70.15
2019-01-03T10:20:06.412Z,70.14
2019-01-03T10:22:38.408Z,68.94
2019-01-03T10:25:09.715Z,71.41
2019-01-03T10:27:41.218Z,68.49
2019-01-03T10:30:12.907Z,68.37
2019-01-03T10:32:44.661Z,67.91
2019-01-03T10:35:16.647Z,68.90
2019-01-03T10:37:48.190Z,68.58
2019-01-03T10:40:19.733Z,68.75
2019-01-03T10:42:51.400Z,68.19
2019-01-03T10:45:22.821Z,68.82
2019-01-03T10:47:54.180Z,67.24
2019-01-03T10:50:25.447Z,67.27
2019-01-03T10:52:56.814Z,66.02
2019-01-03T10:55:28.165Z,65.51
2019-01-03T10:57:59.718Z,66.31
2019-01-03T11:00:31.060Z,66.24
2019-01-03T11:03:02.649Z,66.06
2019-01-03T11:05:34.068Z,66.27
2019-01-03T11:08:05.565Z,65.52
2019-01-03T11:10:36.991Z,64.60
2019-01-03T11:13:08.290Z,64.93
2019-01-03T11:15:39.499Z,65.41
2019-01-03T11:18:10.772Z,65.28
2019-01-03T11:20:42.059Z,64.59
2019-01-03T11:23:13.332Z,64.63
2019-01-03T11:25:44.530Z,64.91
2019-01-03T11:28:15.712Z,65.55
2019-01-03T11:30:47.197Z,64.74
2019-01-03T11:33:18.325Z,64.79
2019-01-03T11:35:49.718Z,65.93
2019-01-03T11:38:20.888Z,65.48
2019-01-03T11:40:52.174Z,66.29
2019-01-03T11:43:23.633Z,66.43
2019-01-03T11:45:55.183Z,66.35
2019-01-03T11:48:26.290Z,66.21
2019-01-03T11:50:57.655Z,65.19
2019-01-03T11:53:28.844Z,64.93
2019-01-03T11:56:00.011Z,65.35
2019-01-03T11:58:31.646Z,65.70
2019-01-03T12:01:03.133Z,65.80
2019-01-03T12:03:34.546Z,65.80
2019-01-03T12:06:05.883Z,65.93
2019-01-03T12:08:36.951Z,65.69
2019-01-03T12:11:08.247Z,65.51
2019-01-03T12:13:39.621Z,65.61
2019-01-03T12:16:10.900Z,66.57
2019-01-03T12:18:42.378Z,66.09
2019-01-03T12:21:13.834Z,66.06
2019-01-03T12:23:44.936Z,66.07
2019-01-03T12:26:16.195Z,66.18
2019-01-03T12:28:47.587Z,66.46
2019-01-03T12:31:19.094Z,66.76
2019-01-03T12:33:50.337Z,67.10
2019-01-03T12:36:21.795Z,66.84
2019-01-03T12:38:53.200Z,66.93
2019-01-03T12:41:24.649Z,67.03
2019-01-03T12:43:55.792Z,66.52
2019-01-03T12:46:26.967Z,66.37
2019-01-03T12:48:58.080Z,66.01
2019-01-03T12:51:29.448Z,65.64
2019-01-03T12:54:00.587Z,65.70
2019-01-03T12:56:32.045Z,66.32
2019-01-03T12:59:03.390Z,65.65
2019-01-03T13:01:34.720Z,66.52
2019-01-03T13:04:06.360Z,65.14
2019-01-03T13:06:37.694Z,64.22
2019-01-03T13:09:17.731Z,63.90
2019-01-03T13:11:49.567Z,62.62
2019-01-03T13:14:20.878Z,62.06
2019-01-03T13:16:52.410Z,61.59
2019-01-03T13:19:23.885Z,61.00
2019-01-03T13:21:55.363Z,60.26
2019-01-03T13:24:26.697Z,60.68
2019-01-03T13:26:58.108Z,61.23
2019-01-03T13:29:29.570Z,61.74
2019-01-03T13:32:01.217Z,61.66
2019-01-03T13:34:32.598Z,61.98
2019-01-03T13:37:04.155Z,61.89
2019-01-03T13:39:35.640Z,61.84
2019-01-03T13:42:06.953Z,61.67
2019-01-03T13:44:38.247Z,61.46
2019-01-03T13:47:09.656Z,62.10
2019-01-03T13:49:41.245Z,63.21
2019-01-03T13:52:12.807Z,63.21
2019-01-03T13:54:46.301Z,62.43
2019-01-03T13:57:17.735Z,61.68
2019-01-03T13:59:49.114Z,62.03
2019-01-03T14:02:20.582Z,62.04
2019-01-03T14:04:52.063Z,61.89
2019-01-03T14:07:23.456Z,61.89
2019-01-03T14:09:54.973Z,61.52
2019-01-03T14:12:26.525Z,61.49
2019-01-03T14:14:58.105Z,61.51
2019-01-03T14:17:29.647Z,61.50
2019-01-03T14:20:01.051Z,61.57
2019-01-03T14:22:32.565Z,61.87
2019-01-03T14:25:04.169Z,61.61
2019-01-03T14:27:35.776Z,62.42
2019-01-03T14:30:07.847Z,61.98
2019-01-03T14:32:39.184Z,62.68
2019-01-03T14:35:10.524Z,62.46
2019-01-03T14:37:41.817Z,62.85
2019-01-03T14:40:12.994Z,63.18
2019-01-03T14:42:44.245Z,63.67
2019-01-03T14:45:15.598Z,64.12
2019-01-03T14:47:47.111Z,63.98
2019-01-03T14:50:18.300Z,63.26
2019-01-03T14:52:49.430Z,63.75
2019-01-03T14:55:20.647Z,65.54
2019-01-03T14:57:51.931Z,67.37
2019-01-03T15:00:23.590Z,67.77
2019-01-03T15:02:55.177Z,68.53
2019-01-03T15:05:26.529Z,69.14
2019-01-03T15:07:58.210Z,69.22
2019-01-03T15:10:29.435Z,69.37
2019-01-03T15:13:00.546Z,69.66
2019-01-03T15:15:31.902Z,69.74
2019-01-03T15:18:03.251Z,69.51
2019-01-03T15:20:34.483Z,69.63
2019-01-03T15:23:05.992Z,69.92
2019-01-03T15:25:37.236Z,70.40
2019-01-03T15:28:08.711Z,70.53
2019-01-03T15:30:39.898Z,71.15
2019-01-03T15:33:11.339Z,70.90
2019-01-03T15:35:42.786Z,70.93
2019-01-03T15:38:14.124Z,70.99
2019-01-03T15:40:45.337Z,71.32
2019-01-03T15:43:16.576Z,71.04
2019-01-03T15:45:47.716Z,71.22
2019-01-03T15:48:19.157Z,71.29
2019-01-03T15:50:50.466Z,70.77
2019-01-03T15:53:21.619Z,71.52
2019-01-03T15:55:52.992Z,70.89
2019-01-03T15:58:24.425Z,71.33
2019-01-03T16:00:55.574Z,71.77
2019-01-03T16:03:26.951Z,71.29
2019-01-03T16:05:58.172Z,71.63
2019-01-03T16:08:29.877Z,71.53
2019-01-03T16:11:01.009Z,71.65
2019-01-03T16:13:32.135Z,71.71
2019-01-03T16:16:03.235Z,71.71
2019-01-03T16:18:34.648Z,71.14
2019-01-03T16:21:06.036Z,71.43
2019-01-03T16:23:37.513Z,70.71
2019-01-03T16:26:08.950Z,70.92
2019-01-03T16:28:40.141Z,71.04
2019-01-03T16:31:11.392Z,71.61
2019-01-03T16:33:42.626Z,71.59
2019-01-03T16:36:14.049Z,71.69
2019-01-03T16:38:45.403Z,71.65
2019-01-03T16:41:16.609Z,71.38
2019-01-03T16:43:48.097Z,71.72
2019-01-03T16:46:19.371Z,71.45
2019-01-03T16:48:50.490Z,71.48
2019-01-03T16:51:22.030Z,71.77
2019-01-03T16:53:53.473Z,71.82
2019-01-03T16:56:24.642Z,71.80
2019-01-03T16:58:56.211Z,71.84
2019-01-03T17:01:27.594Z,71.69
2019-01-03T17:03:58.918Z,71.44
2019-01-03T17:06:30.309Z,71.53
2019-01-03T17:09:01.837Z,71.13
2019-01-03T17:11:34.870Z,70.88
2019-01-03T17:14:06.428Z,70.55
2019-01-03T17:16:37.491Z,71.42
2019-01-03T17:19:09.016Z,71.70
2019-01-03T17:21:40.154Z,71.22
2019-01-03T17:24:11.449Z,71.64
2019-01-03T17:26:42.766Z,71.37
2019-01-03T17:29:14.115Z,71.54
2019-01-03T17:31:45.634Z,72.19
2019-01-03T17:34:17.177Z,72.23
2019-01-03T17:36:48.413Z,72.80
2019-01-03T17:39:19.674Z,73.16
2019-01-03T17:41:51.040Z,74.10
2019-01-03T17:44:22.406Z,74.07
2019-01-03T17:46:53.605Z,75.08
2019-01-03T17:49:24.989Z,75.55
2019-01-03T17:51:56.316Z,75.85
2019-01-03T17:54:27.838Z,76.42
2019-01-03T17:56:59.303Z,76.52
2019-01-03T17:59:30.765Z,76.16
2019-01-03T18:02:02.216Z,76.80
2019-01-03T18:04:33.603Z,76.70
2019-01-03T18:07:05.024Z,76.61
2019-01-03T18:09:36.341Z,76.62
2019-01-03T18:12:07.612Z,76.59
2019-01-03T18:14:38.999Z,76.03
2019-01-03T18:17:10.326Z,76.80
2019-01-03T18:19:41.918Z,76.98
2019-01-03T18:22:12.998Z,76.96
2019-01-03T18:24:44.404Z,76.62
2019-01-03T18:27:15.707Z,76.01
2019-01-03T18:29:46.885Z,75.09
2019-01-03T18:32:18.106Z,76.04
2019-01-03T18:34:49.557Z,75.38
2019-01-03T18:37:20.690Z,75.23
2019-01-03T18:39:52.146Z,74.75
2019-01-03T18:42:23.308Z,74.23
2019-01-03T18:44:54.783Z,74.16
2019-01-03T18:47:26.063Z,74.24
2019-01-03T18:49:57.488Z,72.97
2019-01-03T18:52:29.062Z,73.20
2019-01-03T18:55:00.521Z,73.48
2019-01-03T18:57:31.882Z,73.52
2019-01-03T19:00:03.498Z,72.74
2019-01-03T19:02:36.375Z,73.62
2019-01-03T19:05:07.991Z,73.44
2019-01-03T19:07:39.309Z,73.20
2019-01-03T19:10:11.381Z,73.43
2019-01-03T19:12:42.759Z,73.05
2019-01-03T19:15:14.331Z,73.30
2019-01-03T19:17:45.602Z,72.69
2019-01-03T19:20:16.993Z,72.55
2019-01-03T19:22:48.432Z,73.36
2019-01-03T19:25:21.429Z,72.98
2019-01-03T19:27:53.015Z,72.50
2019-01-03T19:30:24.473Z,73.62
2019-01-03T19:32:55.967Z,73.06
2019-01-03T19:35:27.148Z,73.06
2019-01-03T19:37:58.494Z,71.87
2019-01-03T19:40:29.854Z,72.66
2019-01-03T19:43:02.049Z,73.82
2019-01-03T19:45:33.376Z,73.16
2019-01-03T19:48:04.655Z,73.24
2019-01-03T19:50:37.042Z,74.06
2019-01-03T19:53:08.397Z,73.63
2019-01-03T19:55:39.671Z,73.60
2019-01-03T19:58:11.229Z,72.68
2019-01-03T20:00:42.551Z,73.14
2019-01-03T20:03:13.896Z,73.11
2019-01-03T20:05:45.471Z,72.59
2019-01-03T20:08:17.207Z,72.29
2019-01-03T20:10:48.605Z,72.54
2019-01-03T20:13:20.079Z,72.39
2019-01-03T20:15:51.649Z,71.97
2019-01-03T20:18:22.867Z,71.24
2019-01-03T20:20:54.396Z,71.96
2019-01-03T20:23:25.907Z,71.40
2019-01-03T20:25:57.100Z,71.18
2019-01-03T20:28:28.450Z,70.95
2019-01-03T20:30:59.635Z,70.77
2019-01-03T20:33:31.183Z,70.25
2019-01-03T20:36:02.419Z,70.15
2019-01-03T20:38:33.694Z,70.32
2019-01-03T20:41:05.086Z,71.04
2019-01-03T20:43:39.223Z,70.29
2019-01-03T20:46:09.217Z,70.05
2019-01-03T20:48:40.609Z,70.61
2019-01-03T20:51:11.994Z,70.42
2019-01-03T20:53:43.158Z,70.32
2019-01-03T20:56:14.904Z,70.10
2019-01-03T20:58:46.295Z,70.21
2019-01-03T21:01:17.762Z,71.11
2019-01-03T21:03:48.903Z,71.42
2019-01-03T21:06:20.056Z,71.16
2019-01-03T21:08:51.236Z,70.58
2019-01-03T21:11:22.436Z,70.60
2019-01-03T21:13:53.772Z,70.99
2019-01-03T21:16:25.181Z,71.17
2019-01-03T21:18:56.317Z,71.38
2019-01-03T21:21:27.595Z,71.97
2019-01-03T21:23:59.011Z,71.70
2019-01-03T21:26:30.142Z,71.73
2019-01-03T21:29:01.227Z,70.95
2019-01-03T21:31:32.695Z,70.98
2019-01-03T21:34:04.066Z,71.06
2019-01-03T21:36:35.738Z,70.39
2019-01-03T21:39:07.468Z,70.61
2019-01-03T21:41:39.229Z,71.38
2019-01-03T21:44:10.522Z,71.18
2019-01-03T21:46:41.971Z,71.03
2019-01-03T21:49:13.140Z,71.70
2019-01-03T21:51:44.543Z,71.15
2019-01-03T21:54:18.761Z,71.04
2019-01-03T21:56:48.683Z,71.52
2019-01-03T21:59:20.091Z,71.09
2019-01-03T22:01:51.513Z,71.31
2019-01-03T22:04:22.863Z,71.21
2019-01-03T22:06:54.344Z,71.16
2019-01-03T22:09:25.810Z,71.13
2019-01-03T22:11:56.919Z,71.83
2019-01-03T22:14:28.220Z,71.98
2019-01-03T22:16:59.612Z,72.80
2019-01-03T22:19:30.796Z,72.48
2019-01-03T22:22:02.165Z,72.10
2019-01-03T22:24:33.287Z,72.80
2019-01-03T22:27:04.694Z,73.05
2019-01-03T22:29:35.846Z,72.72
2019-01-03T22:32:07.328Z,73.00
2019-01-03T22:34:39.406Z,72.85
2019-01-03T22:37:10.653Z,72.15
2019-01-03T22:39:42.076Z,72.48
2019-01-03T22:42:13.444Z,72.31
2019-01-03T22:44:44.552Z,72.18
2019-01-03T22:47:15.688Z,72.60
2019-01-03T22:49:46.817Z,72.67
2019-01-03T22:52:18.154Z,72.79
2019-01-03T22:54:49.523Z,73.11
2019-01-03T22:57:21.143Z,73.68
2019-01-03T22:59:52.327Z,73.22
2019-01-03T23:02:23.767Z,73.19
2019-01-03T23:04:54.890Z,73.03
2019-01-03T23:07:26.329Z,72.80
2019-01-03T23:09:57.705Z,73.16
2019-01-03T23:12:29.101Z,72.96
2019-01-03T23:15:00.452Z,72.70
2019-01-03T23:17:31.519Z,72.90
2019-01-03T23:20:02.708Z,72.26
2019-01-03T23:22:34.249Z,72.35
2019-01-03T23:25:05.558Z,72.38
2019-01-03T23:27:36.923Z,72.59
2019-01-03T23:30:08.878Z,72.05
2019-01-03T23:32:40.344Z,72.25
2019-01-03T23:35:11.778Z,72.58
2019-01-03T23:37:42.957Z,72.08
2019-01-03T23:40:14.383Z,72.91
2019-01-03T23:42:45.906Z,73.09
2019-01-03T23:45:19.010Z,72.85
2019-01-03T23:47:52.293Z,72.47
2019-01-03T23:50:26.524Z,72.86
2019-01-03T23:52:57.821Z,72.83
2019-01-03T23:55:33.410Z,72.46
2019-01-03T23:58:04.784Z,72.05
